Terminal Aerodrome Forecast
Issued by NWS

Home | Current Version | Previous Version | Text Only | Print | Product List | Glossary On
Versions: 1 2 3 4 5 6 7 8 9 10 11 12 13
000
FTUS43 KLSX 290520
TAFUIN
TAF
KUIN 290520Z 2906/3006 16008KT P6SM VCSH BKN100
     FM291400 16008KT P6SM BKN100
     FM291800 18008KT P6SM VCSH OVC080
     FM300000 VRB04KT P6SM BKN050=

USA.gov is the U.S. government's official web portal to all federal, state and local government web resources and services.